Terminal Aerodrome Forecast
Issued by NWS Detroit/Pontiac, MI

Home | Current Version | Previous Version | Text Only | Print | Product List | Glossary On
Versions: 1 2 3 4 5 6 7 8 9 10 11 12 13 14 15 16 17 18 19 20 21 22 23 24 25 26 27
967
FTUS43 KDTX 250331 AAB
TAFDTW
TAF AMD
KDTW 250331Z 2504/2606 05005KT 3SM -RA BR OVC004
     FM251000 35003KT 4SM -RA BR OVC007
     FM251200 33008KT P6SM -SHRA BKN015 BKN025
     FM251400 33011KT P6SM SCT025 BKN040
     FM251700 34012G18KT P6SM BKN025 OVC040
     FM260000 34010KT P6SM BKN025=

USA.gov is the U.S. government's official web portal to all federal, state and local government web resources and services.